sensor_id;sensor_type;location;lat;lon;timestamp;P1;durP1;ratioP1;P2;durP2;ratioP2
71937;SDS011;59810;48.800;9.086;2022-10-31T00:00:25;10.07;;;2.93;;
71937;SDS011;59810;48.800;9.086;2022-10-31T00:02:50;8.07;;;2.87;;
71937;SDS011;59810;48.800;9.086;2022-10-31T00:05:17;8.38;;;3.47;;
71937;SDS011;59810;48.800;9.086;2022-10-31T00:07:45;10.00;;;2.90;;
71937;SDS011;59810;48.800;9.086;2022-10-31T00:10:10;9.05;;;3.28;;
71937;SDS011;59810;48.800;9.086;2022-10-31T00:12:35;10.47;;;2.70;;
71937;SDS011;59810;48.800;9.086;2022-10-31T00:15:01;9.77;;;2.93;;
71937;SDS011;59810;48.800;9.086;2022-10-31T00:17:26;9.73;;;3.20;;
71937;SDS011;59810;48.800;9.086;2022-10-31T00:19:51;11.37;;;2.43;;
71937;SDS011;59810;48.800;9.086;2022-10-31T00:22:19;8.73;;;2.72;;
71937;SDS011;59810;48.800;9.086;2022-10-31T00:24:44;8.23;;;2.83;;
71937;SDS011;59810;48.800;9.086;2022-10-31T00:27:09;10.47;;;2.90;;
71937;SDS011;59810;48.800;9.086;2022-10-31T00:29:37;9.95;;;2.80;;
71937;SDS011;59810;48.800;9.086;2022-10-31T00:32:02;8.87;;;2.77;;
71937;SDS011;59810;48.800;9.086;2022-10-31T00:34:28;10.80;;;2.90;;
71937;SDS011;59810;48.800;9.086;2022-10-31T00:36:58;8.93;;;2.90;;
71937;SDS011;59810;48.800;9.086;2022-10-31T00:39:23;9.83;;;3.03;;
71937;SDS011;59810;48.800;9.086;2022-10-31T00:41:48;10.93;;;3.20;;
71937;SDS011;59810;48.800;9.086;2022-10-31T00:44:16;12.27;;;3.83;;
71937;SDS011;59810;48.800;9.086;2022-10-31T00:46:44;10.48;;;2.80;;
71937;SDS011;59810;48.800;9.086;2022-10-31T00:49:09;9.57;;;2.90;;
71937;SDS011;59810;48.800;9.086;2022-10-31T00:51:34;8.93;;;3.53;;
71937;SDS011;59810;48.800;9.086;2022-10-31T00:54:02;9.57;;;2.92;;
71937;SDS011;59810;48.800;9.086;2022-10-31T00:56:27;9.43;;;2.60;;
71937;SDS011;59810;48.800;9.086;2022-10-31T00:58:53;11.23;;;2.90;;
71937;SDS011;59810;48.800;9.086;2022-10-31T01:01:18;8.67;;;3.33;;
71937;SDS011;59810;48.800;9.086;2022-10-31T01:03:43;8.67;;;2.80;;
71937;SDS011;59810;48.800;9.086;2022-10-31T01:06:09;8.43;;;3.10;;
71937;SDS011;59810;48.800;9.086;2022-10-31T01:08:37;9.23;;;2.80;;
71937;SDS011;59810;48.800;9.086;2022-10-31T01:13:41;12.10;;;2.65;;
71937;SDS011;59810;48.800;9.086;2022-10-31T01:16:08;8.02;;;2.58;;
71937;SDS011;59810;48.800;9.086;2022-10-31T01:18:36;8.05;;;2.30;;
71937;SDS011;59810;48.800;9.086;2022-10-31T01:21:11;9.00;;;2.92;;
71937;SDS011;59810;48.800;9.086;2022-10-31T01:23:57;9.33;;;3.00;;
71937;SDS011;59810;48.800;9.086;2022-10-31T01:26:24;11.23;;;3.22;;
71937;SDS011;59810;48.800;9.086;2022-10-31T01:28:54;9.93;;;2.72;;
71937;SDS011;59810;48.800;9.086;2022-10-31T01:31:28;10.00;;;3.35;;
71937;SDS011;59810;48.800;9.086;2022-10-31T01:33:56;8.90;;;2.72;;
71937;SDS011;59810;48.800;9.086;2022-10-31T01:36:23;12.67;;;3.20;;
71937;SDS011;59810;48.800;9.086;2022-10-31T01:38:51;10.30;;;3.00;;
71937;SDS011;59810;48.800;9.086;2022-10-31T01:41:19;10.25;;;3.63;;
71937;SDS011;59810;48.800;9.086;2022-10-31T01:43:54;8.75;;;3.03;;
71937;SDS011;59810;48.800;9.086;2022-10-31T01:46:29;11.98;;;3.30;;
71937;SDS011;59810;48.800;9.086;2022-10-31T01:48:59;7.70;;;2.73;;
71937;SDS011;59810;48.800;9.086;2022-10-31T01:51:28;10.32;;;3.30;;
71937;SDS011;59810;48.800;9.086;2022-10-31T01:53:59;9.35;;;3.90;;
71937;SDS011;59810;48.800;9.086;2022-10-31T01:56:28;9.18;;;3.35;;
71937;SDS011;59810;48.800;9.086;2022-10-31T01:58:56;9.90;;;3.75;;
71937;SDS011;59810;48.800;9.086;2022-10-31T02:01:28;8.67;;;3.37;;
71937;SDS011;59810;48.800;9.086;2022-10-31T02:03:54;9.15;;;3.30;;
71937;SDS011;59810;48.800;9.086;2022-10-31T02:09:06;7.72;;;3.20;;
71937;SDS011;59810;48.800;9.086;2022-10-31T02:11:31;7.93;;;3.47;;
71937;SDS011;59810;48.800;9.086;2022-10-31T02:14:00;10.13;;;3.42;;
71937;SDS011;59810;48.800;9.086;2022-10-31T02:16:26;14.82;;;4.05;;
71937;SDS011;59810;48.800;9.086;2022-10-31T02:18:51;8.57;;;3.20;;
71937;SDS011;59810;48.800;9.086;2022-10-31T02:29:30;9.82;;;3.00;;
71937;SDS011;59810;48.800;9.086;2022-10-31T02:32:31;9.73;;;3.55;;
71937;SDS011;59810;48.800;9.086;2022-10-31T02:35:20;11.13;;;3.13;;
71937;SDS011;59810;48.800;9.086;2022-10-31T02:40:40;8.57;;;3.45;;
71937;SDS011;59810;48.800;9.086;2022-10-31T02:43:19;11.15;;;3.22;;
71937;SDS011;59810;48.800;9.086;2022-10-31T02:45:56;9.77;;;3.30;;
71937;SDS011;59810;48.800;9.086;2022-10-31T02:48:37;9.77;;;3.50;;
71937;SDS011;59810;48.800;9.086;2022-10-31T02:51:05;10.75;;;2.88;;
71937;SDS011;59810;48.800;9.086;2022-10-31T02:53:32;8.52;;;2.65;;
71937;SDS011;59810;48.800;9.086;2022-10-31T02:56:04;8.88;;;3.10;;
71937;SDS011;59810;48.800;9.086;2022-10-31T02:58:31;7.60;;;3.10;;
71937;SDS011;59810;48.800;9.086;2022-10-31T03:04:22;10.43;;;3.47;;
71937;SDS011;59810;48.800;9.086;2022-10-31T03:13:02;8.98;;;2.85;;
71937;SDS011;59810;48.800;9.086;2022-10-31T03:15:39;9.80;;;3.07;;
71937;SDS011;59810;48.800;9.086;2022-10-31T03:18:11;8.95;;;4.03;;
71937;SDS011;59810;48.800;9.086;2022-10-31T03:20:44;9.48;;;3.72;;
71937;SDS011;59810;48.800;9.086;2022-10-31T03:23:14;7.28;;;2.85;;
71937;SDS011;59810;48.800;9.086;2022-10-31T03:25:43;8.40;;;3.38;;
71937;SDS011;59810;48.800;9.086;2022-10-31T03:28:11;9.37;;;3.07;;
71937;SDS011;59810;48.800;9.086;2022-10-31T03:30:41;8.60;;;3.25;;
71937;SDS011;59810;48.800;9.086;2022-10-31T03:33:16;9.65;;;3.40;;
71937;SDS011;59810;48.800;9.086;2022-10-31T03:35:48;8.27;;;3.17;;
71937;SDS011;59810;48.800;9.086;2022-10-31T03:38:18;11.52;;;3.10;;
71937;SDS011;59810;48.800;9.086;2022-10-31T03:40:45;8.23;;;2.73;;
71937;SDS011;59810;48.800;9.086;2022-10-31T03:43:14;7.20;;;2.88;;
71937;SDS011;59810;48.800;9.086;2022-10-31T03:45:49;9.18;;;3.55;;
71937;SDS011;59810;48.800;9.086;2022-10-31T03:48:15;6.93;;;2.97;;
71937;SDS011;59810;48.800;9.086;2022-10-31T03:51:04;9.05;;;3.25;;
71937;SDS011;59810;48.800;9.086;2022-10-31T03:54:24;11.68;;;2.97;;
71937;SDS011;59810;48.800;9.086;2022-10-31T03:56:35;7.78;;;2.75;;
71937;SDS011;59810;48.800;9.086;2022-10-31T04:01:38;13.07;;;3.37;;
71937;SDS011;59810;48.800;9.086;2022-10-31T04:04:07;7.70;;;2.97;;
71937;SDS011;59810;48.800;9.086;2022-10-31T04:06:34;12.93;;;3.10;;
71937;SDS011;59810;48.800;9.086;2022-10-31T04:09:03;8.88;;;2.85;;
71937;SDS011;59810;48.800;9.086;2022-10-31T04:11:34;8.27;;;3.00;;
71937;SDS011;59810;48.800;9.086;2022-10-31T04:14:10;11.23;;;3.20;;
71937;SDS011;59810;48.800;9.086;2022-10-31T04:16:44;6.57;;;3.08;;
71937;SDS011;59810;48.800;9.086;2022-10-31T04:19:10;11.45;;;3.30;;
71937;SDS011;59810;48.800;9.086;2022-10-31T04:21:39;8.55;;;2.85;;
71937;SDS011;59810;48.800;9.086;2022-10-31T04:24:04;8.37;;;3.77;;
71937;SDS011;59810;48.800;9.086;2022-10-31T04:26:32;10.05;;;3.58;;
71937;SDS011;59810;48.800;9.086;2022-10-31T04:28:57;7.93;;;3.27;;
71937;SDS011;59810;48.800;9.086;2022-10-31T04:31:25;10.38;;;3.67;;
71937;SDS011;59810;48.800;9.086;2022-10-31T04:33:50;10.83;;;3.47;;
71937;SDS011;59810;48.800;9.086;2022-10-31T04:36:15;8.57;;;3.10;;
71937;SDS011;59810;48.800;9.086;2022-10-31T04:38:41;8.20;;;2.80;;
71937;SDS011;59810;48.800;9.086;2022-10-31T04:41:06;8.60;;;2.87;;
71937;SDS011;59810;48.800;9.086;2022-10-31T04:43:31;8.40;;;2.93;;
71937;SDS011;59810;48.800;9.086;2022-10-31T04:45:57;7.90;;;2.50;;
71937;SDS011;59810;48.800;9.086;2022-10-31T04:48:25;6.17;;;2.47;;
71937;SDS011;59810;48.800;9.086;2022-10-31T04:50:57;9.52;;;3.40;;
71937;SDS011;59810;48.800;9.086;2022-10-31T04:53:24;10.05;;;3.47;;
71937;SDS011;59810;48.800;9.086;2022-10-31T04:55:49;6.70;;;2.53;;
71937;SDS011;59810;48.800;9.086;2022-10-31T04:58:14;10.20;;;3.30;;
71937;SDS011;59810;48.800;9.086;2022-10-31T05:00:40;10.67;;;2.70;;
71937;SDS011;59810;48.800;9.086;2022-10-31T05:03:07;9.88;;;2.67;;
71937;SDS011;59810;48.800;9.086;2022-10-31T05:05:33;10.93;;;2.70;;
71937;SDS011;59810;48.800;9.086;2022-10-31T05:07:58;10.30;;;2.50;;
71937;SDS011;59810;48.800;9.086;2022-10-31T05:10:24;8.47;;;2.37;;
71937;SDS011;59810;48.800;9.086;2022-10-31T05:12:56;6.97;;;2.67;;
71937;SDS011;59810;48.800;9.086;2022-10-31T05:15:24;10.43;;;2.50;;
71937;SDS011;59810;48.800;9.086;2022-10-31T05:17:51;8.60;;;2.53;;
71937;SDS011;59810;48.800;9.086;2022-10-31T05:20:20;9.00;;;2.55;;
71937;SDS011;59810;48.800;9.086;2022-10-31T05:22:48;8.77;;;2.58;;
71937;SDS011;59810;48.800;9.086;2022-10-31T05:25:15;9.27;;;2.60;;
71937;SDS011;59810;48.800;9.086;2022-10-31T05:27:41;8.10;;;2.70;;
71937;SDS011;59810;48.800;9.086;2022-10-31T05:30:07;7.57;;;2.47;;
71937;SDS011;59810;48.800;9.086;2022-10-31T05:32:38;8.23;;;2.60;;
71937;SDS011;59810;48.800;9.086;2022-10-31T05:35:05;7.75;;;2.53;;
71937;SDS011;59810;48.800;9.086;2022-10-31T05:37:35;8.50;;;2.70;;
71937;SDS011;59810;48.800;9.086;2022-10-31T05:40:04;10.05;;;3.00;;
71937;SDS011;59810;48.800;9.086;2022-10-31T05:42:32;9.52;;;2.47;;
71937;SDS011;59810;48.800;9.086;2022-10-31T05:44:57;9.60;;;3.33;;
71937;SDS011;59810;48.800;9.086;2022-10-31T05:47:27;9.90;;;3.10;;
71937;SDS011;59810;48.800;9.086;2022-10-31T05:49:55;8.00;;;3.17;;
71937;SDS011;59810;48.800;9.086;2022-10-31T05:52:20;7.73;;;2.57;;
71937;SDS011;59810;48.800;9.086;2022-10-31T05:54:48;14.50;;;3.03;;
71937;SDS011;59810;48.800;9.086;2022-10-31T05:57:13;8.13;;;2.83;;
71937;SDS011;59810;48.800;9.086;2022-10-31T05:59:39;10.48;;;2.75;;
71937;SDS011;59810;48.800;9.086;2022-10-31T06:02:04;8.93;;;2.70;;
71937;SDS011;59810;48.800;9.086;2022-10-31T06:04:31;10.80;;;2.97;;
71937;SDS011;59810;48.800;9.086;2022-10-31T06:06:57;8.10;;;2.72;;
71937;SDS011;59810;48.800;9.086;2022-10-31T06:09:22;8.03;;;3.00;;
71937;SDS011;59810;48.800;9.086;2022-10-31T06:11:48;9.80;;;3.10;;
71937;SDS011;59810;48.800;9.086;2022-10-31T06:14:13;7.27;;;3.30;;
71937;SDS011;59810;48.800;9.086;2022-10-31T06:16:38;11.63;;;3.47;;
71937;SDS011;59810;48.800;9.086;2022-10-31T06:19:04;9.00;;;2.90;;
71937;SDS011;59810;48.800;9.086;2022-10-31T06:21:29;10.80;;;4.03;;
71937;SDS011;59810;48.800;9.086;2022-10-31T06:23:58;8.63;;;3.45;;
71937;SDS011;59810;48.800;9.086;2022-10-31T06:26:23;13.63;;;5.07;;
71937;SDS011;59810;48.800;9.086;2022-10-31T06:28:48;8.97;;;3.37;;
71937;SDS011;59810;48.800;9.086;2022-10-31T06:31:16;11.43;;;3.53;;
71937;SDS011;59810;48.800;9.086;2022-10-31T06:33:41;12.10;;;3.92;;
71937;SDS011;59810;48.800;9.086;2022-10-31T06:36:07;10.18;;;3.40;;
71937;SDS011;59810;48.800;9.086;2022-10-31T06:38:33;7.75;;;3.90;;
71937;SDS011;59810;48.800;9.086;2022-10-31T06:41:04;8.13;;;3.20;;
71937;SDS011;59810;48.800;9.086;2022-10-31T06:43:30;8.73;;;3.25;;
71937;SDS011;59810;48.800;9.086;2022-10-31T06:46:03;10.93;;;4.00;;
71937;SDS011;59810;48.800;9.086;2022-10-31T06:48:30;10.18;;;3.40;;
71937;SDS011;59810;48.800;9.086;2022-10-31T06:50:59;10.73;;;3.42;;
71937;SDS011;59810;48.800;9.086;2022-10-31T06:53:25;10.73;;;3.47;;
71937;SDS011;59810;48.800;9.086;2022-10-31T06:55:51;13.50;;;4.43;;
71937;SDS011;59810;48.800;9.086;2022-10-31T06:58:19;12.00;;;3.60;;
71937;SDS011;59810;48.800;9.086;2022-10-31T07:00:44;10.98;;;3.53;;
71937;SDS011;59810;48.800;9.086;2022-10-31T07:03:10;9.73;;;3.63;;
71937;SDS011;59810;48.800;9.086;2022-10-31T07:05:37;9.20;;;4.40;;
71937;SDS011;59810;48.800;9.086;2022-10-31T07:08:03;8.50;;;3.35;;
71937;SDS011;59810;48.800;9.086;2022-10-31T07:10:34;9.87;;;3.83;;
71937;SDS011;59810;48.800;9.086;2022-10-31T07:13:01;10.30;;;3.17;;
71937;SDS011;59810;48.800;9.086;2022-10-31T07:15:30;8.75;;;3.40;;
71937;SDS011;59810;48.800;9.086;2022-10-31T07:18:01;9.63;;;3.25;;
71937;SDS011;59810;48.800;9.086;2022-10-31T07:20:30;8.43;;;3.45;;
71937;SDS011;59810;48.800;9.086;2022-10-31T07:22:58;9.10;;;3.50;;
71937;SDS011;59810;48.800;9.086;2022-10-31T07:25:25;9.45;;;3.22;;
71937;SDS011;59810;48.800;9.086;2022-10-31T07:27:50;10.65;;;3.80;;
71937;SDS011;59810;48.800;9.086;2022-10-31T07:30:18;8.70;;;3.77;;
71937;SDS011;59810;48.800;9.086;2022-10-31T07:32:47;10.60;;;3.83;;
71937;SDS011;59810;48.800;9.086;2022-10-31T07:35:15;9.37;;;3.70;;
71937;SDS011;59810;48.800;9.086;2022-10-31T07:37:42;10.40;;;4.00;;
71937;SDS011;59810;48.800;9.086;2022-10-31T07:40:07;9.07;;;3.60;;
71937;SDS011;59810;48.800;9.086;2022-10-31T07:42:41;11.45;;;4.90;;
71937;SDS011;59810;48.800;9.086;2022-10-31T07:45:10;10.15;;;4.05;;
71937;SDS011;59810;48.800;9.086;2022-10-31T07:50:28;9.77;;;4.32;;
71937;SDS011;59810;48.800;9.086;2022-10-31T07:53:01;10.83;;;3.50;;
71937;SDS011;59810;48.800;9.086;2022-10-31T07:55:27;8.60;;;3.70;;
71937;SDS011;59810;48.800;9.086;2022-10-31T07:58:04;7.60;;;3.63;;
71937;SDS011;59810;48.800;9.086;2022-10-31T08:00:31;11.68;;;4.30;;
71937;SDS011;59810;48.800;9.086;2022-10-31T08:03:02;9.73;;;3.83;;
71937;SDS011;59810;48.800;9.086;2022-10-31T08:05:31;9.70;;;4.30;;
71937;SDS011;59810;48.800;9.086;2022-10-31T08:07:57;8.73;;;4.00;;
71937;SDS011;59810;48.800;9.086;2022-10-31T08:10:23;13.43;;;4.67;;
71937;SDS011;59810;48.800;9.086;2022-10-31T08:12:56;10.15;;;3.90;;
71937;SDS011;59810;48.800;9.086;2022-10-31T08:15:23;10.98;;;4.35;;
71937;SDS011;59810;48.800;9.086;2022-10-31T08:17:48;10.05;;;4.00;;
71937;SDS011;59810;48.800;9.086;2022-10-31T08:20:14;9.60;;;3.80;;
71937;SDS011;59810;48.800;9.086;2022-10-31T08:22:41;12.45;;;4.68;;
71937;SDS011;59810;48.800;9.086;2022-10-31T08:25:07;11.13;;;4.23;;
71937;SDS011;59810;48.800;9.086;2022-10-31T08:27:33;9.02;;;4.00;;
71937;SDS011;59810;48.800;9.086;2022-10-31T08:29:58;12.10;;;4.30;;
71937;SDS011;59810;48.800;9.086;2022-10-31T08:32:24;11.43;;;4.27;;
71937;SDS011;59810;48.800;9.086;2022-10-31T08:34:49;13.23;;;4.80;;
71937;SDS011;59810;48.800;9.086;2022-10-31T08:37:17;9.45;;;4.57;;
71937;SDS011;59810;48.800;9.086;2022-10-31T08:39:45;11.70;;;4.47;;
71937;SDS011;59810;48.800;9.086;2022-10-31T08:42:13;10.05;;;4.15;;
71937;SDS011;59810;48.800;9.086;2022-10-31T08:44:38;10.07;;;4.27;;
71937;SDS011;59810;48.800;9.086;2022-10-31T08:47:04;9.50;;;3.87;;
71937;SDS011;59810;48.800;9.086;2022-10-31T08:49:31;12.95;;;4.65;;
71937;SDS011;59810;48.800;9.086;2022-10-31T08:51:57;8.23;;;4.07;;
71937;SDS011;59810;48.800;9.086;2022-10-31T08:54:22;10.00;;;4.03;;
71937;SDS011;59810;48.800;9.086;2022-10-31T08:56:47;11.30;;;4.10;;
71937;SDS011;59810;48.800;9.086;2022-10-31T08:59:13;11.97;;;4.17;;
71937;SDS011;59810;48.800;9.086;2022-10-31T09:01:38;8.10;;;3.50;;
71937;SDS011;59810;48.800;9.086;2022-10-31T09:04:03;13.37;;;4.43;;
71937;SDS011;59810;48.800;9.086;2022-10-31T09:06:28;9.80;;;3.87;;
71937;SDS011;59810;48.800;9.086;2022-10-31T09:08:56;10.25;;;4.35;;
71937;SDS011;59810;48.800;9.086;2022-10-31T09:11:23;9.03;;;3.80;;
71937;SDS011;59810;48.800;9.086;2022-10-31T09:13:52;10.90;;;4.13;;
71937;SDS011;59810;48.800;9.086;2022-10-31T09:16:19;9.63;;;4.05;;
71937;SDS011;59810;48.800;9.086;2022-10-31T09:18:45;10.52;;;4.07;;
71937;SDS011;59810;48.800;9.086;2022-10-31T09:21:10;8.47;;;4.33;;
71937;SDS011;59810;48.800;9.086;2022-10-31T09:23:36;10.77;;;4.13;;
71937;SDS011;59810;48.800;9.086;2022-10-31T09:26:02;13.43;;;4.43;;
71937;SDS011;59810;48.800;9.086;2022-10-31T09:28:28;11.32;;;4.20;;
71937;SDS011;59810;48.800;9.086;2022-10-31T09:30:54;10.63;;;4.03;;
71937;SDS011;59810;48.800;9.086;2022-10-31T09:33:21;10.20;;;4.18;;
71937;SDS011;59810;48.800;9.086;2022-10-31T09:35:47;11.50;;;4.63;;
71937;SDS011;59810;48.800;9.086;2022-10-31T09:38:14;10.77;;;3.80;;
71937;SDS011;59810;48.800;9.086;2022-10-31T09:40:42;9.93;;;3.95;;
71937;SDS011;59810;48.800;9.086;2022-10-31T09:43:19;12.10;;;3.53;;
71937;SDS011;59810;48.800;9.086;2022-10-31T09:54:37;8.98;;;3.85;;
71937;SDS011;59810;48.800;9.086;2022-10-31T09:57:14;10.68;;;4.00;;
71937;SDS011;59810;48.800;9.086;2022-10-31T09:59:41;9.90;;;4.00;;
71937;SDS011;59810;48.800;9.086;2022-10-31T10:07:30;12.57;;;4.80;;
71937;SDS011;59810;48.800;9.086;2022-10-31T10:10:13;9.13;;;4.28;;
71937;SDS011;59810;48.800;9.086;2022-10-31T10:12:59;10.13;;;4.10;;
71937;SDS011;59810;48.800;9.086;2022-10-31T10:18:14;12.25;;;4.30;;
71937;SDS011;59810;48.800;9.086;2022-10-31T10:23:28;12.13;;;4.88;;
71937;SDS011;59810;48.800;9.086;2022-10-31T10:28:38;15.15;;;5.43;;
71937;SDS011;59810;48.800;9.086;2022-10-31T10:31:11;13.15;;;4.68;;
71937;SDS011;59810;48.800;9.086;2022-10-31T10:36:21;8.60;;;4.03;;
71937;SDS011;59810;48.800;9.086;2022-10-31T10:39:00;11.60;;;4.47;;
71937;SDS011;59810;48.800;9.086;2022-10-31T10:41:31;8.57;;;3.92;;
71937;SDS011;59810;48.800;9.086;2022-10-31T10:43:57;10.50;;;4.30;;
71937;SDS011;59810;48.800;9.086;2022-10-31T10:49:32;8.93;;;4.43;;
71937;SDS011;59810;48.800;9.086;2022-10-31T10:54:48;11.82;;;4.80;;
71937;SDS011;59810;48.800;9.086;2022-10-31T10:57:23;12.35;;;4.35;;
71937;SDS011;59810;48.800;9.086;2022-10-31T10:59:58;9.98;;;4.30;;
71937;SDS011;59810;48.800;9.086;2022-10-31T11:02:27;15.15;;;4.40;;
71937;SDS011;59810;48.800;9.086;2022-10-31T11:04:57;9.57;;;5.10;;
71937;SDS011;59810;48.800;9.086;2022-10-31T11:07:37;11.70;;;4.47;;
71937;SDS011;59810;48.800;9.086;2022-10-31T11:10:04;9.38;;;4.03;;
71937;SDS011;59810;48.800;9.086;2022-10-31T11:12:38;9.27;;;4.30;;
71937;SDS011;59810;48.800;9.086;2022-10-31T11:15:23;11.57;;;4.47;;
71937;SDS011;59810;48.800;9.086;2022-10-31T11:17:55;16.13;;;4.77;;
71937;SDS011;59810;48.800;9.086;2022-10-31T11:20:26;12.82;;;5.85;;
71937;SDS011;59810;48.800;9.086;2022-10-31T11:23:04;12.07;;;5.10;;
71937;SDS011;59810;48.800;9.086;2022-10-31T11:25:55;12.43;;;4.18;;
71937;SDS011;59810;48.800;9.086;2022-10-31T11:28:25;9.35;;;3.95;;
71937;SDS011;59810;48.800;9.086;2022-10-31T11:30:56;10.77;;;4.17;;
71937;SDS011;59810;48.800;9.086;2022-10-31T11:33:29;14.38;;;5.22;;
71937;SDS011;59810;48.800;9.086;2022-10-31T11:36:00;9.80;;;4.43;;
71937;SDS011;59810;48.800;9.086;2022-10-31T11:38:31;14.02;;;4.90;;
71937;SDS011;59810;48.800;9.086;2022-10-31T11:41:14;12.50;;;4.70;;
71937;SDS011;59810;48.800;9.086;2022-10-31T11:43:50;11.50;;;4.43;;
71937;SDS011;59810;48.800;9.086;2022-10-31T11:46:30;8.88;;;4.10;;
71937;SDS011;59810;48.800;9.086;2022-10-31T11:49:13;8.10;;;3.60;;
71937;SDS011;59810;48.800;9.086;2022-10-31T11:51:47;13.95;;;4.00;;
71937;SDS011;59810;48.800;9.086;2022-10-31T11:54:21;9.18;;;4.32;;
71937;SDS011;59810;48.800;9.086;2022-10-31T11:56:53;9.17;;;3.90;;
71937;SDS011;59810;48.800;9.086;2022-10-31T11:59:23;10.55;;;3.90;;
71937;SDS011;59810;48.800;9.086;2022-10-31T12:01:52;11.03;;;4.90;;
71937;SDS011;59810;48.800;9.086;2022-10-31T12:04:22;11.23;;;4.90;;
71937;SDS011;59810;48.800;9.086;2022-10-31T12:06:53;12.95;;;4.72;;
71937;SDS011;59810;48.800;9.086;2022-10-31T12:09:26;11.60;;;4.20;;
71937;SDS011;59810;48.800;9.086;2022-10-31T12:12:10;12.77;;;5.25;;
71937;SDS011;59810;48.800;9.086;2022-10-31T12:15:10;10.50;;;4.80;;
71937;SDS011;59810;48.800;9.086;2022-10-31T12:17:45;14.27;;;4.75;;
71937;SDS011;59810;48.800;9.086;2022-10-31T12:20:20;11.82;;;4.57;;
71937;SDS011;59810;48.800;9.086;2022-10-31T12:36:31;11.15;;;3.92;;
71937;SDS011;59810;48.800;9.086;2022-10-31T12:39:06;11.68;;;4.90;;
71937;SDS011;59810;48.800;9.086;2022-10-31T12:57:52;17.80;;;5.53;;
71937;SDS011;59810;48.800;9.086;2022-10-31T13:00:24;13.55;;;5.57;;
71937;SDS011;59810;48.800;9.086;2022-10-31T13:02:55;10.98;;;4.82;;
71937;SDS011;59810;48.800;9.086;2022-10-31T13:05:30;11.25;;;5.35;;
71937;SDS011;59810;48.800;9.086;2022-10-31T13:13:14;11.77;;;5.22;;
71937;SDS011;59810;48.800;9.086;2022-10-31T13:19:00;10.52;;;5.40;;
71937;SDS011;59810;48.800;9.086;2022-10-31T13:21:35;13.30;;;4.57;;
71937;SDS011;59810;48.800;9.086;2022-10-31T13:24:07;9.70;;;5.00;;
71937;SDS011;59810;48.800;9.086;2022-10-31T13:26:49;11.90;;;4.90;;
71937;SDS011;59810;48.800;9.086;2022-10-31T13:29:18;8.65;;;4.20;;
71937;SDS011;59810;48.800;9.086;2022-10-31T13:31:57;11.10;;;4.72;;
71937;SDS011;59810;48.800;9.086;2022-10-31T13:34:27;12.37;;;5.27;;
71937;SDS011;59810;48.800;9.086;2022-10-31T13:36:58;17.17;;;5.53;;
71937;SDS011;59810;48.800;9.086;2022-10-31T13:45:22;10.55;;;4.95;;
71937;SDS011;59810;48.800;9.086;2022-10-31T13:47:55;11.90;;;4.77;;
71937;SDS011;59810;48.800;9.086;2022-10-31T13:50:29;12.77;;;4.93;;
71937;SDS011;59810;48.800;9.086;2022-10-31T13:53:13;14.90;;;5.00;;
71937;SDS011;59810;48.800;9.086;2022-10-31T13:56:02;12.40;;;4.80;;
71937;SDS011;59810;48.800;9.086;2022-10-31T13:58:36;9.75;;;4.50;;
71937;SDS011;59810;48.800;9.086;2022-10-31T14:03:38;12.18;;;5.25;;
71937;SDS011;59810;48.800;9.086;2022-10-31T14:06:06;14.95;;;5.82;;
71937;SDS011;59810;48.800;9.086;2022-10-31T14:08:34;10.73;;;4.73;;
71937;SDS011;59810;48.800;9.086;2022-10-31T14:11:01;13.90;;;4.90;;
71937;SDS011;59810;48.800;9.086;2022-10-31T14:16:02;10.93;;;4.85;;
71937;SDS011;59810;48.800;9.086;2022-10-31T14:18:45;12.55;;;5.05;;
71937;SDS011;59810;48.800;9.086;2022-10-31T14:23:47;10.23;;;4.50;;
71937;SDS011;59810;48.800;9.086;2022-10-31T14:28:50;11.00;;;4.47;;
71937;SDS011;59810;48.800;9.086;2022-10-31T14:50:49;8.18;;;3.65;;
71937;SDS011;59810;48.800;9.086;2022-10-31T14:53:20;12.53;;;4.00;;
71937;SDS011;59810;48.800;9.086;2022-10-31T14:55:48;13.05;;;4.25;;
71937;SDS011;59810;48.800;9.086;2022-10-31T14:59:01;9.05;;;4.18;;
71937;SDS011;59810;48.800;9.086;2022-10-31T15:04:23;10.30;;;3.80;;
71937;SDS011;59810;48.800;9.086;2022-10-31T15:07:00;9.03;;;4.10;;
71937;SDS011;59810;48.800;9.086;2022-10-31T15:09:31;9.27;;;4.00;;
71937;SDS011;59810;48.800;9.086;2022-10-31T15:11:58;7.68;;;3.60;;
71937;SDS011;59810;48.800;9.086;2022-10-31T15:14:41;11.70;;;4.00;;
71937;SDS011;59810;48.800;9.086;2022-10-31T15:17:08;10.13;;;4.07;;
71937;SDS011;59810;48.800;9.086;2022-10-31T15:19:36;7.65;;;3.97;;
71937;SDS011;59810;48.800;9.086;2022-10-31T15:22:02;10.43;;;4.28;;
71937;SDS011;59810;48.800;9.086;2022-10-31T15:24:35;10.07;;;4.00;;
71937;SDS011;59810;48.800;9.086;2022-10-31T15:27:03;8.75;;;4.18;;
71937;SDS011;59810;48.800;9.086;2022-10-31T15:29:29;11.02;;;4.25;;
71937;SDS011;59810;48.800;9.086;2022-10-31T15:34:37;10.13;;;4.72;;
71937;SDS011;59810;48.800;9.086;2022-10-31T15:37:04;9.27;;;4.32;;
71937;SDS011;59810;48.800;9.086;2022-10-31T15:39:34;10.05;;;4.20;;
71937;SDS011;59810;48.800;9.086;2022-10-31T15:42:00;13.70;;;4.53;;
71937;SDS011;59810;48.800;9.086;2022-10-31T15:44:26;8.88;;;4.20;;
71937;SDS011;59810;48.800;9.086;2022-10-31T15:46:57;9.70;;;4.70;;
71937;SDS011;59810;48.800;9.086;2022-10-31T15:51:56;11.30;;;4.22;;
71937;SDS011;59810;48.800;9.086;2022-10-31T15:54:24;12.18;;;4.75;;
71937;SDS011;59810;48.800;9.086;2022-10-31T15:56:50;10.57;;;4.60;;
71937;SDS011;59810;48.800;9.086;2022-10-31T15:59:19;9.38;;;4.60;;
71937;SDS011;59810;48.800;9.086;2022-10-31T16:02:07;10.73;;;4.97;;
71937;SDS011;59810;48.800;9.086;2022-10-31T16:04:35;11.75;;;4.15;;
71937;SDS011;59810;48.800;9.086;2022-10-31T16:07:02;15.40;;;4.67;;
71937;SDS011;59810;48.800;9.086;2022-10-31T16:09:37;8.38;;;4.20;;
71937;SDS011;59810;48.800;9.086;2022-10-31T16:12:17;12.35;;;4.60;;
71937;SDS011;59810;48.800;9.086;2022-10-31T16:14:42;12.77;;;4.23;;
71937;SDS011;59810;48.800;9.086;2022-10-31T16:17:11;10.03;;;3.97;;
71937;SDS011;59810;48.800;9.086;2022-10-31T16:19:44;11.07;;;4.30;;
71937;SDS011;59810;48.800;9.086;2022-10-31T16:22:20;9.57;;;4.13;;
71937;SDS011;59810;48.800;9.086;2022-10-31T16:24:49;15.20;;;4.93;;
71937;SDS011;59810;48.800;9.086;2022-10-31T16:27:23;14.37;;;5.03;;
71937;SDS011;59810;48.800;9.086;2022-10-31T16:29:53;13.77;;;5.10;;
71937;SDS011;59810;48.800;9.086;2022-10-31T16:37:38;10.65;;;4.43;;
71937;SDS011;59810;48.800;9.086;2022-10-31T16:40:11;13.27;;;5.03;;
71937;SDS011;59810;48.800;9.086;2022-10-31T16:42:40;10.68;;;4.45;;
71937;SDS011;59810;48.800;9.086;2022-10-31T16:45:06;8.05;;;3.95;;
71937;SDS011;59810;48.800;9.086;2022-10-31T16:47:35;10.48;;;3.72;;
71937;SDS011;59810;48.800;9.086;2022-10-31T16:50:00;11.27;;;4.40;;
71937;SDS011;59810;48.800;9.086;2022-10-31T16:52:25;9.40;;;4.20;;
71937;SDS011;59810;48.800;9.086;2022-10-31T16:54:51;9.43;;;4.10;;
71937;SDS011;59810;48.800;9.086;2022-10-31T16:57:18;11.80;;;5.05;;
71937;SDS011;59810;48.800;9.086;2022-10-31T16:59:48;9.33;;;4.20;;
71937;SDS011;59810;48.800;9.086;2022-10-31T17:02:21;11.93;;;4.93;;
71937;SDS011;59810;48.800;9.086;2022-10-31T17:04:46;16.15;;;6.85;;
71937;SDS011;59810;48.800;9.086;2022-10-31T17:07:14;15.25;;;6.43;;
71937;SDS011;59810;48.800;9.086;2022-10-31T17:09:40;15.70;;;7.03;;
71937;SDS011;59810;48.800;9.086;2022-10-31T17:12:05;16.60;;;6.50;;
71937;SDS011;59810;48.800;9.086;2022-10-31T17:14:35;14.98;;;7.18;;
71937;SDS011;59810;48.800;9.086;2022-10-31T17:17:03;14.38;;;6.63;;
71937;SDS011;59810;48.800;9.086;2022-10-31T17:19:29;12.87;;;6.37;;
71937;SDS011;59810;48.800;9.086;2022-10-31T17:21:57;11.40;;;6.50;;
71937;SDS011;59810;48.800;9.086;2022-10-31T17:24:25;11.55;;;6.28;;